createdAt,value
2023-03-22T00:00:15.322Z,11.76
2023-03-22T00:02:44.225Z,11.76
2023-03-22T00:05:12.604Z,11.76
2023-03-22T00:07:43.550Z,11.77
2023-03-22T00:10:12.522Z,11.77
2023-03-22T00:12:40.919Z,11.76
2023-03-22T00:15:12.251Z,11.73
2023-03-22T00:17:42.073Z,11.73
2023-03-22T00:20:11.800Z,11.72
2023-03-22T00:22:40.536Z,11.73
2023-03-22T00:25:10.206Z,11.72
2023-03-22T00:27:38.790Z,11.72
2023-03-22T00:30:11.176Z,11.69
2023-03-22T00:32:40.046Z,11.70
2023-03-22T00:35:09.874Z,11.68
2023-03-22T00:37:39.714Z,11.66
2023-03-22T00:40:11.793Z,11.64
2023-03-22T00:42:42.512Z,11.61
2023-03-22T00:45:14.128Z,11.58
2023-03-22T00:47:42.462Z,11.55
2023-03-22T00:50:19.262Z,11.53
2023-03-22T00:52:47.503Z,11.51
2023-03-22T00:55:15.980Z,11.48
2023-03-22T00:57:44.349Z,11.47
2023-03-22T01:00:16.459Z,11.46
2023-03-22T01:02:45.078Z,11.44
2023-03-22T01:05:16.151Z,11.44
2023-03-22T01:07:44.893Z,11.42
2023-03-22T01:10:14.381Z,11.40
2023-03-22T01:12:42.715Z,11.39
2023-03-22T01:15:13.784Z,11.38
2023-03-22T01:17:43.336Z,11.38
2023-03-22T01:20:14.180Z,11.37
2023-03-22T01:22:42.947Z,11.36
2023-03-22T01:25:12.262Z,11.35
2023-03-22T01:27:40.619Z,11.34
2023-03-22T01:30:10.823Z,11.32
2023-03-22T01:32:40.822Z,11.31
2023-03-22T01:35:10.839Z,11.31
2023-03-22T01:37:39.266Z,11.29
2023-03-22T01:40:10.920Z,11.29
2023-03-22T01:42:39.530Z,11.28
2023-03-22T01:45:47.460Z,11.24
2023-03-22T01:48:28.221Z,11.24
2023-03-22T01:51:07.950Z,11.23
2023-03-22T01:53:41.601Z,11.21
2023-03-22T01:56:12.037Z,11.19
2023-03-22T01:58:41.347Z,11.19
2023-03-22T02:01:11.307Z,11.18
2023-03-22T02:03:49.009Z,11.17
2023-03-22T02:06:17.657Z,11.17
2023-03-22T02:08:46.197Z,11.16
2023-03-22T02:11:20.094Z,11.15
2023-03-22T02:14:27.265Z,11.13
2023-03-22T02:17:13.902Z,11.10
2023-03-22T02:20:38.426Z,11.09
2023-03-22T02:23:43.351Z,11.08
2023-03-22T02:26:50.079Z,11.04
2023-03-22T02:29:26.587Z,11.06
2023-03-22T02:32:31.569Z,11.06
2023-03-22T02:35:39.857Z,11.05
2023-03-22T02:41:39.625Z,11.06
2023-03-22T02:44:18.295Z,11.06
2023-03-22T02:46:52.685Z,11.06
2023-03-22T02:49:32.615Z,11.05
2023-03-22T02:52:05.753Z,11.04
2023-03-22T02:54:43.406Z,11.03
2023-03-22T02:57:23.337Z,11.00
2023-03-22T02:59:52.971Z,11.00
2023-03-22T03:02:23.548Z,11.01
2023-03-22T03:04:53.714Z,11.01
2023-03-22T03:07:28.375Z,11.00
2023-03-22T03:09:57.913Z,10.98
2023-03-22T03:12:30.300Z,10.97
2023-03-22T03:14:58.726Z,10.96
2023-03-22T03:17:46.273Z,10.96
2023-03-22T03:20:30.407Z,10.96
2023-03-22T03:23:14.838Z,10.95
2023-03-22T03:25:53.105Z,10.96
2023-03-22T03:28:38.387Z,10.96
2023-03-22T03:31:19.869Z,10.95
2023-03-22T03:33:58.512Z,10.95
2023-03-22T03:36:29.022Z,10.98
2023-03-22T03:38:59.813Z,10.97
2023-03-22T03:41:32.051Z,10.98
2023-03-22T03:44:02.602Z,10.98
2023-03-22T03:46:31.970Z,10.98
2023-03-22T03:49:03.482Z,10.99
2023-03-22T03:51:35.848Z,11.00
2023-03-22T03:54:04.278Z,10.99
2023-03-22T03:56:33.135Z,10.99
2023-03-22T03:59:03.257Z,11.00
2023-03-22T04:01:32.088Z,10.99
2023-03-22T04:04:00.546Z,11.00
2023-03-22T04:06:29.324Z,11.01
2023-03-22T04:08:58.099Z,11.00
2023-03-22T04:11:26.788Z,11.00
2023-03-22T04:13:55.658Z,11.00
2023-03-22T04:16:26.089Z,11.00
2023-03-22T04:18:54.778Z,11.00
2023-03-22T04:21:24.534Z,11.00
2023-03-22T04:23:52.824Z,10.99
2023-03-22T04:26:21.221Z,10.99
2023-03-22T04:28:49.679Z,10.98
2023-03-22T04:31:18.572Z,10.97
2023-03-22T04:33:49.864Z,10.95
2023-03-22T04:36:18.213Z,10.95
2023-03-22T04:38:46.573Z,10.94
2023-03-22T04:41:14.919Z,10.95
2023-03-22T04:43:46.918Z,10.96
2023-03-22T04:46:15.898Z,10.96
2023-03-22T04:48:44.849Z,10.97
2023-03-22T04:51:14.546Z,10.98
2023-03-22T04:53:42.872Z,10.98
2023-03-22T04:56:13.559Z,10.98
2023-03-22T04:58:44.051Z,11.00
2023-03-22T05:01:14.885Z,11.01
2023-03-22T05:03:45.516Z,11.01
2023-03-22T05:06:16.334Z,11.03
2023-03-22T05:08:44.924Z,11.03
2023-03-22T05:11:17.503Z,11.04
2023-03-22T05:13:45.826Z,11.04
2023-03-22T05:16:14.153Z,11.04
2023-03-22T05:18:45.536Z,11.05
2023-03-22T05:21:17.983Z,11.07
2023-03-22T05:23:47.584Z,11.07
2023-03-22T05:26:20.537Z,11.09
2023-03-22T05:28:48.949Z,11.09
2023-03-22T05:31:17.722Z,11.11
2023-03-22T05:33:46.733Z,11.12
2023-03-22T05:36:16.922Z,11.13
2023-03-22T05:38:45.819Z,11.15
2023-03-22T05:41:15.048Z,11.16
2023-03-22T05:43:43.586Z,11.17
2023-03-22T05:46:13.612Z,11.19
2023-03-22T05:48:42.267Z,11.21
2023-03-22T05:51:17.801Z,11.23
2023-03-22T05:53:46.556Z,11.23
2023-03-22T05:56:14.910Z,11.24
2023-03-22T05:58:43.756Z,11.27
2023-03-22T06:01:16.439Z,11.28
2023-03-22T06:03:44.888Z,11.29
2023-03-22T06:06:13.895Z,11.31
2023-03-22T06:08:44.074Z,11.34
2023-03-22T06:11:12.772Z,11.35
2023-03-22T06:13:41.220Z,11.36
2023-03-22T06:16:09.636Z,11.39
2023-03-22T06:18:38.119Z,11.41
2023-03-22T06:21:07.290Z,11.42
2023-03-22T06:23:35.825Z,11.43
2023-03-22T06:26:06.471Z,11.45
2023-03-22T06:28:34.864Z,11.47
2023-03-22T06:33:50.843Z,11.54
2023-03-22T06:36:19.146Z,11.61
2023-03-22T06:38:47.847Z,11.66
2023-03-22T06:42:18.174Z,11.74
2023-03-22T06:44:46.489Z,11.85
2023-03-22T06:47:14.902Z,11.92
2023-03-22T06:49:43.204Z,11.94
2023-03-22T06:52:11.551Z,11.96
2023-03-22T06:54:40.130Z,11.97
2023-03-22T06:57:10.141Z,11.98
2023-03-22T06:59:38.478Z,12.00
2023-03-22T07:02:07.540Z,12.02
2023-03-22T07:04:35.954Z,12.08
2023-03-22T07:07:04.497Z,12.14
2023-03-22T07:09:33.107Z,12.22
2023-03-22T07:12:10.904Z,12.30
2023-03-22T07:14:39.564Z,12.39
2023-03-22T07:17:07.927Z,12.45
2023-03-22T07:19:36.652Z,12.50
2023-03-22T07:22:06.780Z,12.58
2023-03-22T07:24:37.189Z,12.67
2023-03-22T07:27:10.095Z,12.79
2023-03-22T07:29:38.504Z,12.87
2023-03-22T07:32:12.364Z,12.92
2023-03-22T07:34:40.902Z,12.97
2023-03-22T07:37:09.567Z,12.96
2023-03-22T07:39:38.273Z,12.95
2023-03-22T07:42:06.943Z,12.94
2023-03-22T07:44:37.104Z,13.00
2023-03-22T07:47:05.851Z,13.01
2023-03-22T07:49:34.199Z,13.02
2023-03-22T07:52:03.303Z,13.04
2023-03-22T07:54:34.351Z,13.05
2023-03-22T07:57:03.744Z,13.01
2023-03-22T07:59:32.497Z,12.95
2023-03-22T08:02:02.701Z,12.90
2023-03-22T08:04:31.766Z,12.86
2023-03-22T08:07:00.483Z,12.85
2023-03-22T08:09:29.210Z,12.83
2023-03-22T08:11:58.918Z,12.77
2023-03-22T08:14:36.189Z,12.76
2023-03-22T08:17:06.896Z,12.77
2023-03-22T08:19:35.619Z,12.80
2023-03-22T08:22:08.268Z,12.82
2023-03-22T08:24:36.940Z,12.85
2023-03-22T08:27:06.087Z,12.94
2023-03-22T08:29:34.513Z,13.11
2023-03-22T08:32:03.980Z,13.29
2023-03-22T08:34:38.161Z,13.41
2023-03-22T08:37:07.324Z,13.46
2023-03-22T08:39:36.446Z,13.51
2023-03-22T08:42:05.109Z,13.58
2023-03-22T08:44:33.908Z,13.59
2023-03-22T08:47:03.227Z,13.56
2023-03-22T08:49:33.342Z,13.49
2023-03-22T08:52:01.805Z,13.46
2023-03-22T08:54:33.643Z,13.45
2023-03-22T08:57:03.505Z,13.52
2023-03-22T08:59:32.329Z,13.69
2023-03-22T09:02:01.063Z,13.85
2023-03-22T09:04:29.790Z,13.96
2023-03-22T09:06:59.689Z,14.03
2023-03-22T09:09:28.097Z,14.06
2023-03-22T09:11:56.381Z,14.16
2023-03-22T09:14:24.850Z,14.24
2023-03-22T09:16:53.131Z,14.26
2023-03-22T09:19:22.830Z,14.30
2023-03-22T09:21:51.219Z,14.32
2023-03-22T09:24:25.836Z,14.38
2023-03-22T09:26:54.459Z,14.44
2023-03-22T09:29:23.051Z,14.49
2023-03-22T09:31:51.739Z,14.43
2023-03-22T09:34:20.029Z,14.33
2023-03-22T09:36:48.450Z,14.21
2023-03-22T09:39:16.759Z,14.09
2023-03-22T09:41:50.618Z,14.01
2023-03-22T09:44:25.109Z,14.02
2023-03-22T09:47:00.008Z,14.03
2023-03-22T09:49:38.456Z,14.04
2023-03-22T09:52:16.800Z,14.07
2023-03-22T09:54:47.814Z,14.13
2023-03-22T09:57:28.757Z,14.09
2023-03-22T10:00:11.842Z,14.06
2023-03-22T10:02:53.828Z,14.00
2023-03-22T10:05:33.301Z,13.89
2023-03-22T10:08:29.905Z,13.85
2023-03-22T10:10:59.671Z,13.81
2023-03-22T10:13:38.028Z,13.68
2023-03-22T10:16:12.380Z,13.61
2023-03-22T10:18:47.216Z,13.59
2023-03-22T10:21:18.545Z,13.54
2023-03-22T10:26:48.386Z,13.21
2023-03-22T10:29:27.681Z,13.15
2023-03-22T10:31:56.394Z,13.12
2023-03-22T10:34:31.099Z,13.08
2023-03-22T10:37:02.953Z,12.97
2023-03-22T10:39:36.082Z,12.93
2023-03-22T10:42:08.936Z,12.92
2023-03-22T10:44:48.057Z,12.88
2023-03-22T10:47:19.177Z,12.90
2023-03-22T10:49:54.883Z,12.91
2023-03-22T10:52:42.485Z,12.91
2023-03-22T10:55:13.918Z,12.93
2023-03-22T10:57:44.123Z,12.84
2023-03-22T11:00:17.971Z,12.71
2023-03-22T11:02:52.699Z,12.53
2023-03-22T11:05:25.220Z,12.37
2023-03-22T11:07:53.953Z,12.21
2023-03-22T11:10:29.793Z,12.09
2023-03-22T11:13:16.031Z,12.00
2023-03-22T11:15:54.888Z,11.94
2023-03-22T11:18:23.683Z,11.92
2023-03-22T11:21:00.816Z,11.89
2023-03-22T11:23:33.952Z,11.89
2023-03-22T11:26:12.620Z,11.93
2023-03-22T11:28:48.278Z,11.93
2023-03-22T11:31:26.360Z,11.91
2023-03-22T11:34:00.949Z,11.87
2023-03-22T11:36:30.946Z,11.94
2023-03-22T11:39:01.173Z,11.98
2023-03-22T11:41:33.111Z,12.04
2023-03-22T11:44:06.007Z,12.10
2023-03-22T11:46:37.963Z,12.17
2023-03-22T11:49:10.852Z,12.20
2023-03-22T11:51:40.866Z,12.20
2023-03-22T11:54:15.943Z,12.28
2023-03-22T11:56:49.228Z,12.33
2023-03-22T11:59:27.840Z,12.36
2023-03-22T12:02:05.570Z,12.31
2023-03-22T12:04:39.668Z,12.28
2023-03-22T12:07:16.588Z,12.22
2023-03-22T12:09:49.772Z,12.21
2023-03-22T12:12:23.125Z,12.20
2023-03-22T12:14:56.275Z,12.18
2023-03-22T12:17:35.489Z,12.17
2023-03-22T12:20:17.952Z,12.19
2023-03-22T12:22:52.780Z,12.24
2023-03-22T12:25:25.081Z,12.31
2023-03-22T12:27:56.441Z,12.41
2023-03-22T12:30:28.169Z,12.44
2023-03-22T12:33:07.174Z,12.47
2023-03-22T12:35:40.627Z,12.49
2023-03-22T12:38:22.732Z,12.51
2023-03-22T12:40:52.493Z,12.52
2023-03-22T12:43:36.040Z,12.55
2023-03-22T12:46:07.625Z,12.57
2023-03-22T12:48:46.349Z,12.60
2023-03-22T12:51:16.541Z,12.41
2023-03-22T12:53:48.957Z,12.20
2023-03-22T12:56:20.396Z,12.06
2023-03-22T12:58:52.877Z,11.94
2023-03-22T13:01:31.275Z,11.84
2023-03-22T13:04:01.381Z,11.83
2023-03-22T13:06:57.077Z,11.83
2023-03-22T13:09:41.452Z,11.86
2023-03-22T13:12:32.954Z,11.85
2023-03-22T13:15:25.856Z,11.86
2023-03-22T13:17:59.168Z,11.93
2023-03-22T13:20:34.658Z,11.95
2023-03-22T13:23:28.880Z,11.93
2023-03-22T13:26:06.647Z,11.94
2023-03-22T13:28:38.222Z,11.95
2023-03-22T13:31:07.763Z,12.01
2023-03-22T13:33:38.834Z,12.03
2023-03-22T13:36:25.097Z,12.07
2023-03-22T13:38:58.180Z,12.08
2023-03-22T13:41:34.445Z,12.07
2023-03-22T13:44:21.115Z,12.06
2023-03-22T13:46:52.601Z,12.08
2023-03-22T13:49:56.067Z,12.09
2023-03-22T13:52:36.929Z,12.11
2023-03-22T13:55:18.836Z,12.08
2023-03-22T13:57:59.948Z,12.07
2023-03-22T14:00:48.082Z,12.07
2023-03-22T14:03:27.827Z,12.04
2023-03-22T14:06:11.236Z,11.97
2023-03-22T14:08:46.255Z,11.94
2023-03-22T14:11:27.647Z,11.93
2023-03-22T14:14:04.179Z,11.92
2023-03-22T14:16:42.543Z,11.88
2023-03-22T14:19:19.956Z,11.88
